createdAt,value
2023-08-14T00:01:42.609Z,6.40
2023-08-14T00:04:12.780Z,5.45
2023-08-14T00:06:43.364Z,5.20
2023-08-14T00:09:13.394Z,3.47
2023-08-14T00:11:43.857Z,3.40
2023-08-14T00:14:14.298Z,4.75
2023-08-14T00:16:44.848Z,4.60
2023-08-14T00:19:15.136Z,4.38
2023-08-14T00:21:45.552Z,3.65
2023-08-14T00:24:15.631Z,3.72
2023-08-14T00:26:47.145Z,3.38
2023-08-14T00:29:17.783Z,4.20
2023-08-14T00:31:48.520Z,4.25
2023-08-14T00:34:18.628Z,3.83
2023-08-14T00:36:49.271Z,4.38
2023-08-14T00:39:19.380Z,4.47
2023-08-14T00:41:49.993Z,4.15
2023-08-14T00:44:20.101Z,3.60
2023-08-14T00:46:51.261Z,3.92
2023-08-14T00:49:21.373Z,4.07
2023-08-14T00:51:51.962Z,4.40
2023-08-14T00:54:22.212Z,4.50
2023-08-14T00:56:53.039Z,3.67
2023-08-14T00:59:23.312Z,4.45
2023-08-14T01:01:53.903Z,3.75
2023-08-14T01:04:24.517Z,3.38
2023-08-14T01:06:55.220Z,3.95
2023-08-14T01:09:25.457Z,6.75
2023-08-14T01:11:59.393Z,5.00
2023-08-14T01:14:34.040Z,7.63
2023-08-14T01:17:11.969Z,8.35
2023-08-14T01:19:44.237Z,8.60
2023-08-14T01:22:56.792Z,9.45
2023-08-14T01:25:35.732Z,8.10
2023-08-14T01:28:07.514Z,6.97
2023-08-14T01:30:38.580Z,5.13
2023-08-14T01:33:09.627Z,4.15
2023-08-14T01:35:48.510Z,3.55
2023-08-14T01:39:03.308Z,3.42
2023-08-14T01:41:43.934Z,3.40
2023-08-14T01:44:17.997Z,5.15
2023-08-14T01:46:50.277Z,3.75
2023-08-14T01:49:22.512Z,4.00
2023-08-14T01:51:55.074Z,5.25
2023-08-14T01:54:25.966Z,5.68
2023-08-14T01:56:59.058Z,5.05
2023-08-14T01:59:44.383Z,4.75
2023-08-14T02:02:16.598Z,4.78
2023-08-14T02:04:47.424Z,5.28
2023-08-14T02:07:17.500Z,5.07
2023-08-14T02:09:48.043Z,4.32
2023-08-14T02:12:18.278Z,3.60
2023-08-14T02:14:49.257Z,3.58
2023-08-14T02:17:21.229Z,3.55
2023-08-14T02:19:51.921Z,4.55
2023-08-14T02:22:22.709Z,4.07
2023-08-14T02:24:53.289Z,4.35
2023-08-14T02:27:23.363Z,3.58
2023-08-14T02:29:53.810Z,4.00
2023-08-14T02:32:24.047Z,4.07
2023-08-14T02:34:58.438Z,3.95
2023-08-14T02:37:28.445Z,4.57
2023-08-14T02:39:58.926Z,3.60
2023-08-14T02:42:29.401Z,4.45
2023-08-14T02:45:00.419Z,4.43
2023-08-14T02:47:30.465Z,5.20
2023-08-14T02:50:01.023Z,3.90
2023-08-14T02:52:31.024Z,3.80
2023-08-14T02:55:00.936Z,4.38
2023-08-14T02:57:31.444Z,4.35
2023-08-14T03:00:01.539Z,4.38
2023-08-14T03:02:32.048Z,4.50
2023-08-14T03:05:02.484Z,4.55
2023-08-14T03:07:32.958Z,4.75
2023-08-14T03:10:02.993Z,5.75
2023-08-14T03:12:33.463Z,6.32
2023-08-14T03:15:03.570Z,7.18
2023-08-14T03:17:34.410Z,6.15
2023-08-14T03:20:07.004Z,6.50
2023-08-14T03:22:37.559Z,7.00
2023-08-14T03:25:08.322Z,7.18
2023-08-14T03:27:40.058Z,7.65
2023-08-14T03:30:10.727Z,7.85
2023-08-14T03:32:42.835Z,7.80
2023-08-14T03:35:13.497Z,8.00
2023-08-14T03:37:44.035Z,8.57
2023-08-14T03:40:15.769Z,8.10
2023-08-14T03:42:46.443Z,7.35
2023-08-14T03:45:16.742Z,7.50
2023-08-14T03:47:47.335Z,7.60
2023-08-14T03:50:18.992Z,7.50
2023-08-14T03:52:51.108Z,7.30
2023-08-14T03:55:24.725Z,5.57
2023-08-14T03:57:56.971Z,5.13
2023-08-14T04:00:34.885Z,5.72
2023-08-14T04:03:09.682Z,6.18
2023-08-14T04:05:47.697Z,7.22
2023-08-14T04:08:42.423Z,6.85
2023-08-14T04:11:25.465Z,6.25
2023-08-14T04:14:47.337Z,6.03
2023-08-14T04:18:24.045Z,6.45
2023-08-14T04:22:54.426Z,7.15
2023-08-14T04:52:32.462Z,4.00
2023-08-14T04:55:17.019Z,4.28
2023-08-14T04:57:48.401Z,4.32
2023-08-14T05:00:19.280Z,4.97
2023-08-14T05:02:49.623Z,4.68
2023-08-14T05:05:22.040Z,4.43
2023-08-14T05:07:52.501Z,5.40
2023-08-14T05:10:24.180Z,5.97
2023-08-14T05:12:54.388Z,7.00
2023-08-14T05:15:24.917Z,8.38
2023-08-14T05:17:55.091Z,8.00
2023-08-14T05:20:25.644Z,8.43
2023-08-14T05:22:55.775Z,8.07
2023-08-14T05:25:27.097Z,7.40
2023-08-14T05:27:57.123Z,7.55
2023-08-14T05:30:27.604Z,6.35
2023-08-14T05:32:58.032Z,5.75
2023-08-14T05:35:28.755Z,4.68
2023-08-14T05:37:59.421Z,5.20
2023-08-14T05:40:30.300Z,4.90
2023-08-14T05:43:15.791Z,4.40
2023-08-14T05:45:48.137Z,5.30
2023-08-14T05:48:18.381Z,5.72
2023-08-14T05:50:48.737Z,6.00
2023-08-14T05:53:19.139Z,5.40
2023-08-14T05:55:49.572Z,5.93
2023-08-14T05:58:19.682Z,5.38
2023-08-14T06:00:51.781Z,5.70
2023-08-14T06:03:33.274Z,5.72
2023-08-14T06:06:12.712Z,4.88
2023-08-14T06:08:42.832Z,5.80
2023-08-14T06:11:13.285Z,6.15
2023-08-14T06:13:43.447Z,5.82
2023-08-14T06:16:14.616Z,5.25
2023-08-14T06:18:44.863Z,5.40
2023-08-14T06:21:15.306Z,4.72
2023-08-14T06:23:45.937Z,5.32
2023-08-14T06:26:16.595Z,5.13
2023-08-14T06:28:47.471Z,4.90
2023-08-14T06:31:18.018Z,5.25
2023-08-14T06:33:51.652Z,5.13
2023-08-14T06:36:23.086Z,4.88
2023-08-14T06:38:53.892Z,4.55
2023-08-14T06:41:24.576Z,4.80
2023-08-14T06:43:54.702Z,4.15
2023-08-14T06:46:24.725Z,5.07
2023-08-14T06:48:55.194Z,4.50
2023-08-14T06:51:25.238Z,4.68
2023-08-14T06:53:56.168Z,4.85
2023-08-14T06:56:26.495Z,4.93
2023-08-14T06:58:57.006Z,4.35
2023-08-14T07:01:27.388Z,4.55
2023-08-14T07:03:57.930Z,5.10
2023-08-14T07:06:28.116Z,5.22
2023-08-14T07:08:58.678Z,6.03
2023-08-14T07:11:28.930Z,5.20
2023-08-14T07:14:01.499Z,4.95
2023-08-14T07:16:31.752Z,4.70
2023-08-14T07:19:02.462Z,5.05
2023-08-14T07:21:32.506Z,6.07
2023-08-14T07:24:03.057Z,6.47
2023-08-14T07:26:33.344Z,6.60
2023-08-14T07:29:03.941Z,6.10
2023-08-14T07:31:33.999Z,6.05
2023-08-14T07:34:04.470Z,5.30
2023-08-14T07:36:36.737Z,6.32
2023-08-14T07:39:08.618Z,7.35
2023-08-14T07:41:38.929Z,5.45
2023-08-14T07:44:08.989Z,5.53
2023-08-14T07:46:39.386Z,5.70
2023-08-14T07:49:09.435Z,5.43
2023-08-14T07:51:39.938Z,6.28
2023-08-14T07:54:10.109Z,6.00
2023-08-14T07:56:40.828Z,6.05
2023-08-14T07:59:11.632Z,6.07
2023-08-14T08:01:43.688Z,5.47
2023-08-14T08:04:26.697Z,6.50
2023-08-14T08:06:57.820Z,5.97
2023-08-14T08:09:28.448Z,6.20
2023-08-14T08:12:00.844Z,6.40
2023-08-14T08:14:30.951Z,6.18
2023-08-14T08:17:00.799Z,5.72
2023-08-14T08:19:31.389Z,6.15
2023-08-14T08:22:01.459Z,6.18
2023-08-14T08:24:31.966Z,5.88
2023-08-14T08:27:02.196Z,4.43
2023-08-14T08:29:32.676Z,4.20
2023-08-14T08:32:02.773Z,4.47
2023-08-14T08:34:33.353Z,3.72
2023-08-14T08:37:03.346Z,4.40
2023-08-14T08:39:33.796Z,4.80
2023-08-14T08:42:05.564Z,3.90
2023-08-14T08:44:39.084Z,3.92
2023-08-14T08:47:14.040Z,4.80
2023-08-14T08:49:45.718Z,5.55
2023-08-14T08:52:17.710Z,6.57
2023-08-14T08:54:49.734Z,5.65
2023-08-14T08:57:21.084Z,5.63
2023-08-14T08:59:53.175Z,5.45
2023-08-14T09:02:23.525Z,5.45
2023-08-14T09:04:54.341Z,5.50
2023-08-14T09:07:24.562Z,4.68
2023-08-14T09:09:55.123Z,5.05
2023-08-14T09:12:24.964Z,5.03
2023-08-14T09:15:13.543Z,6.00
2023-08-14T09:17:43.592Z,5.43
2023-08-14T09:20:28.290Z,5.18
2023-08-14T09:23:01.361Z,4.82
2023-08-14T09:25:33.349Z,4.95
2023-08-14T09:28:04.278Z,7.30
2023-08-14T09:30:36.990Z,7.45
2023-08-14T09:33:11.664Z,5.53
2023-08-14T09:35:42.799Z,5.50
2023-08-14T09:38:17.586Z,6.93
2023-08-14T09:40:48.097Z,7.70
2023-08-14T09:43:18.213Z,7.57
2023-08-14T09:45:49.792Z,7.45
2023-08-14T09:48:20.440Z,7.75
2023-08-14T09:50:54.748Z,8.23
2023-08-14T09:53:25.168Z,7.63
2023-08-14T09:55:55.947Z,7.70
2023-08-14T09:58:26.542Z,6.30
2023-08-14T10:00:56.711Z,8.13
2023-08-14T10:03:28.644Z,6.20
2023-08-14T10:05:59.747Z,7.05
2023-08-14T10:08:32.235Z,6.40
2023-08-14T10:11:18.979Z,9.40
2023-08-14T10:13:56.724Z,4.75
2023-08-14T10:16:33.740Z,5.55
2023-08-14T10:19:06.917Z,6.35
2023-08-14T10:21:37.945Z,6.07
2023-08-14T10:24:09.862Z,7.75
2023-08-14T10:26:40.245Z,10.38
2023-08-14T10:29:11.087Z,8.30
2023-08-14T10:31:41.662Z,6.18
2023-08-14T10:34:12.730Z,7.18
2023-08-14T10:36:42.782Z,9.07
2023-08-14T10:41:48.197Z,7.05
2023-08-14T10:44:18.819Z,6.88
2023-08-14T10:46:49.633Z,6.80
2023-08-14T10:49:20.711Z,6.43
2023-08-14T10:51:50.797Z,5.95
2023-08-14T10:54:25.708Z,5.47
2023-08-14T10:57:02.049Z,5.10
2023-08-14T10:59:34.160Z,6.25
2023-08-14T11:02:18.128Z,5.20
2023-08-14T11:05:03.214Z,5.70
2023-08-14T11:07:36.633Z,4.85
2023-08-14T11:10:08.222Z,4.43
2023-08-14T11:12:38.916Z,4.78
2023-08-14T11:15:10.226Z,5.60
2023-08-14T11:17:40.701Z,7.13
2023-08-14T11:20:15.214Z,6.20
2023-08-14T11:22:49.969Z,5.22
2023-08-14T11:25:20.671Z,5.88
2023-08-14T11:27:53.383Z,7.13
2023-08-14T11:30:26.847Z,7.32
2023-08-14T11:32:57.381Z,6.82
2023-08-14T11:35:31.771Z,6.07
2023-08-14T11:38:02.237Z,5.90
2023-08-14T11:40:34.731Z,6.10
2023-08-14T11:43:05.046Z,6.13
2023-08-14T11:45:35.562Z,5.65
2023-08-14T11:48:10.142Z,5.55
2023-08-14T11:50:40.948Z,4.95
2023-08-14T11:53:14.300Z,4.88
2023-08-14T11:55:50.627Z,5.07
2023-08-14T12:02:59.195Z,4.70
2023-08-14T12:13:24.691Z,4.25
2023-08-14T12:28:49.476Z,5.05
2023-08-14T12:31:20.698Z,4.80
2023-08-14T12:33:56.436Z,5.13
2023-08-14T12:36:30.338Z,5.18
2023-08-14T12:39:00.611Z,5.57
2023-08-14T12:41:31.673Z,5.80
2023-08-14T12:44:01.840Z,7.15
2023-08-14T12:46:32.592Z,6.72
2023-08-14T12:49:02.732Z,6.55
2023-08-14T12:51:32.851Z,6.40
2023-08-14T12:54:03.398Z,6.28
2023-08-14T12:56:34.108Z,6.68
2023-08-14T12:59:04.740Z,5.82
2023-08-14T13:01:35.110Z,6.25
2023-08-14T13:04:07.739Z,6.53
2023-08-14T13:09:09.323Z,7.20
2023-08-14T13:11:39.349Z,7.45
2023-08-14T13:14:09.873Z,7.32
2023-08-14T13:16:39.786Z,6.97
2023-08-14T13:19:10.284Z,7.20
2023-08-14T13:21:40.371Z,7.05
2023-08-14T13:24:11.041Z,6.43
2023-08-14T13:26:41.075Z,6.85
2023-08-14T13:29:11.709Z,6.35
2023-08-14T13:31:42.011Z,7.00
2023-08-14T13:34:13.186Z,6.05
2023-08-14T13:36:43.432Z,6.20
2023-08-14T13:39:14.101Z,5.88
2023-08-14T13:41:44.348Z,5.10
2023-08-14T13:44:14.852Z,5.10
2023-08-14T13:46:44.722Z,6.03
2023-08-14T13:49:15.139Z,6.80
2023-08-14T13:51:46.739Z,7.93
2023-08-14T13:54:17.274Z,6.88
2023-08-14T13:56:47.280Z,6.90
2023-08-14T13:59:17.790Z,7.15
2023-08-14T14:01:48.186Z,7.22
2023-08-14T14:04:18.925Z,6.72
2023-08-14T14:06:49.021Z,6.85
2023-08-14T14:09:19.031Z,6.03
2023-08-14T14:11:49.584Z,6.70
2023-08-14T14:14:19.648Z,6.30
2023-08-14T14:17:03.109Z,6.55
2023-08-14T14:19:33.781Z,6.65
2023-08-14T14:22:05.404Z,7.00
2023-08-14T14:24:37.281Z,6.85
2023-08-14T14:27:07.876Z,6.32
2023-08-14T14:29:37.953Z,6.70
2023-08-14T14:32:08.692Z,6.30
2023-08-14T14:34:38.809Z,7.28
2023-08-14T14:37:09.234Z,6.93
2023-08-14T14:39:39.288Z,6.95
2023-08-14T14:42:09.878Z,6.22
2023-08-14T14:44:40.025Z,5.72
2023-08-14T14:47:10.433Z,5.60
2023-08-14T14:49:40.664Z,5.68
2023-08-14T14:52:11.133Z,6.32
2023-08-14T14:54:44.577Z,6.60
2023-08-14T14:57:15.164Z,5.78
2023-08-14T14:59:45.265Z,6.00
2023-08-14T15:02:28.982Z,5.95
2023-08-14T15:05:05.833Z,5.95
2023-08-14T15:07:37.716Z,6.40
2023-08-14T15:10:08.525Z,6.03
2023-08-14T15:12:39.750Z,6.22
2023-08-14T15:15:10.481Z,5.93
2023-08-14T15:17:44.421Z,7.07
2023-08-14T15:20:15.415Z,6.45
2023-08-14T15:22:45.939Z,5.32
2023-08-14T15:25:16.508Z,5.72
2023-08-14T15:27:47.153Z,5.68
2023-08-14T15:30:21.662Z,5.30
2023-08-14T15:32:53.006Z,5.53
2023-08-14T15:35:23.385Z,5.57
2023-08-14T15:37:54.179Z,5.07
2023-08-14T15:40:24.306Z,4.70
2023-08-14T15:42:55.643Z,4.95
2023-08-14T15:45:26.026Z,4.28
2023-08-14T15:47:56.571Z,4.30
2023-08-14T15:50:27.213Z,4.53
2023-08-14T15:52:57.719Z,4.50
2023-08-14T15:55:28.045Z,4.30
2023-08-14T15:57:58.842Z,4.82
2023-08-14T16:00:32.559Z,4.78
2023-08-14T16:03:04.174Z,4.50
2023-08-14T16:05:35.425Z,4.60
2023-08-14T16:08:06.092Z,3.92
2023-08-14T16:10:36.555Z,4.55
2023-08-14T16:13:07.021Z,4.70
2023-08-14T16:15:37.081Z,4.00
2023-08-14T16:18:07.634Z,4.20
2023-08-14T16:20:37.985Z,4.43
2023-08-14T16:23:08.402Z,4.03
2023-08-14T16:25:38.586Z,3.88
2023-08-14T16:28:09.202Z,3.97
2023-08-14T16:30:39.836Z,3.78
2023-08-14T16:33:10.619Z,3.92
2023-08-14T16:35:40.963Z,3.42
2023-08-14T16:38:11.548Z,3.20
2023-08-14T16:40:46.411Z,3.65
2023-08-14T16:43:17.014Z,3.65
2023-08-14T16:45:52.008Z,3.53
2023-08-14T16:48:22.485Z,3.30
2023-08-14T16:50:53.152Z,3.80
2023-08-14T16:53:23.862Z,3.60
2023-08-14T16:55:56.730Z,3.60
2023-08-14T16:58:27.101Z,3.30
2023-08-14T17:00:57.135Z,3.60
2023-08-14T17:03:28.084Z,3.85
2023-08-14T17:06:02.662Z,3.20
2023-08-14T17:08:36.007Z,4.22
2023-08-14T17:11:08.395Z,3.70
2023-08-14T17:13:39.003Z,3.95
2023-08-14T17:16:12.557Z,3.50
2023-08-14T17:18:43.061Z,3.88
2023-08-14T17:21:13.103Z,3.83
2023-08-14T17:23:43.529Z,3.50
2023-08-14T17:26:13.554Z,4.07
2023-08-14T17:28:44.300Z,3.60
2023-08-14T17:31:14.430Z,4.05
2023-08-14T17:33:45.021Z,3.63
2023-08-14T17:36:15.288Z,3.40
2023-08-14T17:38:45.771Z,4.15
2023-08-14T17:41:16.089Z,3.50
2023-08-14T17:43:46.654Z,4.00
2023-08-14T17:46:16.940Z,4.00
2023-08-14T17:48:47.553Z,3.00
2023-08-14T17:51:17.944Z,3.50
2023-08-14T17:53:48.457Z,3.47
2023-08-14T17:56:19.742Z,3.45
2023-08-14T17:58:51.795Z,3.88
2023-08-14T18:01:22.153Z,3.53
2023-08-14T18:03:52.715Z,3.45
2023-08-14T18:06:22.828Z,3.78
2023-08-14T18:08:53.293Z,4.35
2023-08-14T18:11:23.475Z,3.80
2023-08-14T18:13:54.698Z,3.92
2023-08-14T18:16:24.900Z,3.63
2023-08-14T18:19:04.399Z,3.83
2023-08-14T18:21:42.952Z,3.85
2023-08-14T18:24:13.530Z,3.67
2023-08-14T18:26:43.855Z,3.60
2023-08-14T18:29:14.500Z,3.58
2023-08-14T18:31:44.595Z,3.75
2023-08-14T18:34:15.871Z,3.55
2023-08-14T18:36:45.907Z,3.72
2023-08-14T18:39:17.746Z,3.90
2023-08-14T18:41:47.862Z,3.78
2023-08-14T18:44:22.448Z,3.53
2023-08-14T18:46:52.501Z,3.40
2023-08-14T18:49:23.124Z,3.45
2023-08-14T18:51:53.124Z,3.50
2023-08-14T18:54:24.356Z,3.83
2023-08-14T18:56:54.419Z,3.20
2023-08-14T18:59:26.659Z,3.20
2023-08-14T19:01:56.809Z,2.92
2023-08-14T19:04:40.797Z,3.30
2023-08-14T19:07:12.592Z,3.20
2023-08-14T19:09:43.813Z,3.28
2023-08-14T19:12:14.460Z,3.15
2023-08-14T19:14:44.913Z,3.33
2023-08-14T19:17:14.981Z,3.60
2023-08-14T19:19:46.137Z,3.25
2023-08-14T19:22:19.224Z,3.15
2023-08-14T19:24:49.678Z,3.22
2023-08-14T19:27:20.130Z,3.38
2023-08-14T19:29:50.680Z,3.35
2023-08-14T19:32:20.718Z,3.10
2023-08-14T19:34:51.929Z,3.90
2023-08-14T19:37:22.077Z,5.25
2023-08-14T19:39:52.527Z,4.60
2023-08-14T19:42:22.672Z,4.60
2023-08-14T19:44:53.092Z,4.28
2023-08-14T19:47:23.311Z,4.43
2023-08-14T19:49:55.158Z,4.63
2023-08-14T19:52:25.489Z,4.65
2023-08-14T19:54:56.424Z,4.55
2023-08-14T19:57:26.618Z,3.90
2023-08-14T19:59:57.197Z,4.93
2023-08-14T20:02:29.700Z,4.40
2023-08-14T20:05:00.224Z,4.25
2023-08-14T20:07:30.411Z,4.22
2023-08-14T20:10:02.471Z,4.10
2023-08-14T20:12:32.478Z,5.85
2023-08-14T20:15:02.884Z,4.50
2023-08-14T20:17:33.124Z,3.78
2023-08-14T20:20:03.747Z,4.25
2023-08-14T20:22:33.883Z,4.00
2023-08-14T20:25:04.641Z,4.07
2023-08-14T20:27:34.836Z,4.00
2023-08-14T20:30:05.904Z,3.80
2023-08-14T20:32:36.331Z,4.03
2023-08-14T20:35:09.719Z,4.25
2023-08-14T20:37:42.724Z,4.50
2023-08-14T20:40:13.696Z,4.72
2023-08-14T20:42:44.228Z,4.95
2023-08-14T20:45:17.136Z,4.07
2023-08-14T20:47:47.927Z,4.65
2023-08-14T20:50:18.500Z,6.47
2023-08-14T20:52:48.655Z,6.70
2023-08-14T20:55:19.191Z,4.60
2023-08-14T20:57:49.676Z,4.57
2023-08-14T21:00:20.109Z,4.30
2023-08-14T21:02:50.210Z,4.25
2023-08-14T21:05:20.367Z,4.45
2023-08-14T21:07:50.849Z,4.20
2023-08-14T21:10:21.593Z,4.15
2023-08-14T21:12:51.999Z,4.38
2023-08-14T21:15:22.195Z,4.85
2023-08-14T21:17:52.664Z,5.13
2023-08-14T21:20:22.720Z,4.68
2023-08-14T21:22:53.348Z,4.53
2023-08-14T21:25:25.738Z,4.68
2023-08-14T21:27:56.146Z,4.78
2023-08-14T21:30:26.411Z,4.80
2023-08-14T21:32:57.023Z,4.75
2023-08-14T21:35:27.840Z,4.80
2023-08-14T21:37:58.987Z,5.40
2023-08-14T21:40:29.919Z,5.25
2023-08-14T21:43:00.356Z,4.60
2023-08-14T21:45:31.262Z,5.43
2023-08-14T21:48:02.094Z,4.22
2023-08-14T21:50:32.110Z,4.50
2023-08-14T21:53:02.602Z,4.40
2023-08-14T21:55:33.418Z,4.88
2023-08-14T21:58:04.040Z,4.55
2023-08-14T22:00:34.239Z,4.30
2023-08-14T22:03:04.854Z,4.60
2023-08-14T22:05:35.044Z,4.43
2023-08-14T22:08:06.615Z,4.40
2023-08-14T22:10:36.761Z,4.47
2023-08-14T22:13:07.192Z,4.22
2023-08-14T22:15:46.154Z,5.10
2023-08-14T22:18:17.714Z,4.20
2023-08-14T22:20:47.737Z,6.75
2023-08-14T22:23:18.145Z,10.10
2023-08-14T22:25:48.209Z,11.68
2023-08-14T22:28:18.661Z,6.30
2023-08-14T22:30:48.715Z,5.22
2023-08-14T22:33:19.135Z,6.90
2023-08-14T22:35:58.982Z,4.60
2023-08-14T22:38:31.970Z,5.18
2023-08-14T22:41:03.236Z,4.53
2023-08-14T22:43:33.992Z,5.45
2023-08-14T22:46:04.050Z,5.07
2023-08-14T22:48:34.590Z,4.80
2023-08-14T22:51:04.874Z,5.47
2023-08-14T22:53:35.315Z,5.00
2023-08-14T22:56:05.362Z,5.97
2023-08-14T22:58:35.798Z,5.75
2023-08-14T23:01:05.900Z,5.03
2023-08-14T23:03:36.458Z,5.50
2023-08-14T23:06:06.459Z,5.47
2023-08-14T23:08:36.392Z,5.18
2023-08-14T23:11:06.936Z,4.70
2023-08-14T23:13:37.054Z,4.72
2023-08-14T23:16:07.726Z,4.93
2023-08-14T23:18:37.928Z,5.25
2023-08-14T23:21:08.342Z,5.00
2023-08-14T23:23:38.552Z,6.20
2023-08-14T23:26:10.354Z,4.90
2023-08-14T23:28:40.589Z,6.05
2023-08-14T23:31:11.253Z,5.45
2023-08-14T23:33:42.320Z,5.13
2023-08-14T23:36:13.678Z,5.25
2023-08-14T23:38:46.030Z,5.60
2023-08-14T23:41:16.868Z,5.55
2023-08-14T23:43:46.934Z,6.47
2023-08-14T23:46:17.611Z,6.03
2023-08-14T23:48:47.731Z,6.65
2023-08-14T23:51:19.052Z,6.00
2023-08-14T23:53:49.397Z,6.75
2023-08-14T23:56:19.969Z,6.07
2023-08-14T23:58:49.998Z,6.32
